createdAt,value
2019-02-04T00:01:23.373Z,11.63
2019-02-04T00:03:52.856Z,11.90
2019-02-04T00:06:20.804Z,11.78
2019-02-04T00:08:48.767Z,13.83
2019-02-04T00:11:16.701Z,11.53
2019-02-04T00:13:44.575Z,16.40
2019-02-04T00:16:12.804Z,11.90
2019-02-04T00:18:40.896Z,10.78
2019-02-04T00:21:08.880Z,15.90
2019-02-04T00:23:36.841Z,12.10
2019-02-04T00:26:04.789Z,12.95
2019-02-04T00:28:33.844Z,13.68
2019-02-04T00:31:05.045Z,10.75
2019-02-04T00:33:32.439Z,10.48
2019-02-04T00:36:00.346Z,11.20
2019-02-04T00:38:28.400Z,13.50
2019-02-04T00:40:56.333Z,12.33
2019-02-04T00:43:24.319Z,11.20
2019-02-04T00:45:52.338Z,10.78
2019-02-04T00:48:20.891Z,11.00
2019-02-04T00:50:49.128Z,12.55
2019-02-04T00:53:17.090Z,11.10
2019-02-04T00:55:45.024Z,10.80
2019-02-04T00:58:12.981Z,12.07
2019-02-04T01:00:40.942Z,14.53
2019-02-04T01:03:09.411Z,13.10
2019-02-04T01:05:37.265Z,12.05
2019-02-04T01:08:05.338Z,13.93
2019-02-04T01:10:35.585Z,13.95
2019-02-04T01:13:03.640Z,13.45
2019-02-04T01:15:31.631Z,11.10
2019-02-04T01:17:59.594Z,12.98
2019-02-04T01:20:28.369Z,10.68
2019-02-04T01:22:58.109Z,10.85
2019-02-04T01:25:27.047Z,12.10
2019-02-04T01:27:54.980Z,11.03
2019-02-04T01:30:23.882Z,10.45
2019-02-04T01:32:52.146Z,10.93
2019-02-04T01:35:20.314Z,11.70
2019-02-04T01:37:48.275Z,11.97
2019-02-04T01:40:19.689Z,10.38
2019-02-04T01:42:48.007Z,10.98
2019-02-04T01:45:15.925Z,10.20
2019-02-04T01:47:43.922Z,8.90
2019-02-04T01:50:15.238Z,9.25
2019-02-04T01:52:43.266Z,9.28
2019-02-04T01:55:11.486Z,13.22
2019-02-04T01:57:42.139Z,9.33
2019-02-04T02:00:17.104Z,15.13
2019-02-04T02:02:45.206Z,12.60
2019-02-04T02:05:13.431Z,12.55
2019-02-04T02:07:43.373Z,12.30
2019-02-04T02:10:15.033Z,13.00
2019-02-04T02:12:43.067Z,10.72
2019-02-04T02:15:10.982Z,10.18
2019-02-04T02:17:39.692Z,11.45
2019-02-04T02:20:10.054Z,9.18
2019-02-04T02:22:37.960Z,12.07
2019-02-04T02:25:06.177Z,14.83
2019-02-04T02:27:34.065Z,13.88
2019-02-04T02:30:02.109Z,10.55
2019-02-04T02:32:31.186Z,12.47
2019-02-04T02:34:59.678Z,17.48
2019-02-04T02:37:27.585Z,13.88
2019-02-04T02:39:55.501Z,11.85
2019-02-04T02:42:23.444Z,16.10
2019-02-04T02:44:51.439Z,10.32
2019-02-04T02:47:19.309Z,12.18
2019-02-04T02:49:47.255Z,14.85
2019-02-04T02:52:15.166Z,10.90
2019-02-04T02:54:43.115Z,9.83
2019-02-04T02:57:11.022Z,13.78
2019-02-04T02:59:38.925Z,11.55
2019-02-04T03:02:06.882Z,9.45
2019-02-04T03:04:34.786Z,11.78
2019-02-04T03:07:03.053Z,12.55
2019-02-04T03:09:30.924Z,18.73
2019-02-04T03:11:58.895Z,10.75
2019-02-04T03:14:26.843Z,11.00
2019-02-04T03:16:54.702Z,13.18
2019-02-04T03:19:22.623Z,12.70
2019-02-04T03:21:50.526Z,10.43
2019-02-04T03:24:19.627Z,13.50
2019-02-04T03:26:48.266Z,10.03
2019-02-04T03:29:16.133Z,14.05
2019-02-04T03:31:46.015Z,12.50
2019-02-04T03:34:13.913Z,12.07
2019-02-04T03:36:41.841Z,13.08
2019-02-04T03:39:10.025Z,23.52
2019-02-04T03:41:57.364Z,15.23
2019-02-04T03:44:37.975Z,14.50
2019-02-04T03:47:25.965Z,12.15
2019-02-04T03:50:06.790Z,18.35
2019-02-04T03:52:34.650Z,11.15
2019-02-04T03:55:02.760Z,10.55
2019-02-04T03:57:30.693Z,13.70
2019-02-04T03:59:58.611Z,12.63
2019-02-04T04:02:26.571Z,14.75
2019-02-04T04:05:07.895Z,11.55
2019-02-04T04:07:35.745Z,11.48
2019-02-04T04:10:17.476Z,15.55
2019-02-04T04:15:47.650Z,12.28
2019-02-04T04:18:16.302Z,15.65
2019-02-04T04:20:44.300Z,11.80
2019-02-04T04:23:12.331Z,12.88
2019-02-04T04:25:59.734Z,12.30
2019-02-04T04:28:27.723Z,11.83
2019-02-04T04:30:56.805Z,12.10
2019-02-04T04:33:24.748Z,12.00
2019-02-04T04:35:52.706Z,13.08
2019-02-04T04:38:20.608Z,12.28
2019-02-04T04:40:48.550Z,11.38
2019-02-04T04:43:16.746Z,12.05
2019-02-04T04:45:44.773Z,13.75
2019-02-04T04:48:26.839Z,12.65
2019-02-04T04:51:14.609Z,12.43
2019-02-04T04:53:56.760Z,16.25
2019-02-04T04:56:37.150Z,9.93
2019-02-04T04:59:24.744Z,13.08
2019-02-04T05:02:05.397Z,13.93
2019-02-04T05:04:33.368Z,16.17
2019-02-04T05:07:22.895Z,14.40
2019-02-04T05:10:04.120Z,11.28
2019-02-04T05:12:51.551Z,13.38
2019-02-04T05:15:46.117Z,13.38
2019-02-04T05:18:14.175Z,11.65
2019-02-04T05:20:55.176Z,15.60
2019-02-04T05:23:42.661Z,16.48
2019-02-04T05:26:23.584Z,16.57
2019-02-04T05:28:51.615Z,13.60
2019-02-04T05:31:32.609Z,13.85
2019-02-04T05:34:19.249Z,12.40
2019-02-04T05:37:02.211Z,15.28
2019-02-04T05:39:30.102Z,14.45
2019-02-04T05:41:58.131Z,16.20
2019-02-04T05:44:45.575Z,14.80
2019-02-04T05:47:26.503Z,13.05
2019-02-04T05:49:54.546Z,16.35
2019-02-04T05:52:22.500Z,13.85
2019-02-04T05:54:50.777Z,12.60
2019-02-04T05:57:18.863Z,15.70
2019-02-04T06:00:08.334Z,13.30
2019-02-04T06:02:49.112Z,13.05
2019-02-04T06:05:36.630Z,13.00
2019-02-04T06:08:17.168Z,12.25
2019-02-04T06:10:45.255Z,12.90
2019-02-04T06:16:33.596Z,14.05
2019-02-04T06:22:20.731Z,11.45
2019-02-04T06:25:02.250Z,14.35
2019-02-04T06:30:27.060Z,18.45
2019-02-04T06:33:22.197Z,16.55
2019-02-04T06:36:03.041Z,14.58
2019-02-04T06:41:29.651Z,15.68
2019-02-04T06:44:00.269Z,20.20
2019-02-04T06:46:42.471Z,17.92
2019-02-04T06:49:12.512Z,17.05
2019-02-04T06:51:40.681Z,16.77
2019-02-04T06:54:08.673Z,19.80
2019-02-04T06:56:36.600Z,22.15
2019-02-04T06:59:24.849Z,20.15
2019-02-04T07:02:06.093Z,23.40
2019-02-04T07:04:53.548Z,20.55
2019-02-04T07:07:35.277Z,23.00
2019-02-04T07:10:23.618Z,24.45
2019-02-04T07:13:04.342Z,20.30
2019-02-04T07:15:44.992Z,21.07
2019-02-04T07:18:26.302Z,21.37
2019-02-04T07:21:07.931Z,21.27
2019-02-04T07:23:35.895Z,20.45
2019-02-04T07:26:03.962Z,30.82
2019-02-04T07:28:33.854Z,26.97
2019-02-04T07:31:15.356Z,32.17
2019-02-04T07:33:43.461Z,20.92
2019-02-04T07:36:11.428Z,21.17
2019-02-04T07:38:40.910Z,21.73
2019-02-04T07:41:08.990Z,29.48
2019-02-04T07:43:56.399Z,20.95
2019-02-04T07:46:36.572Z,24.43
2019-02-04T07:49:34.789Z,29.05
2019-02-04T07:52:08.404Z,28.10
2019-02-04T07:54:36.330Z,24.25
2019-02-04T07:57:04.416Z,22.98
2019-02-04T07:59:32.802Z,29.05
2019-02-04T08:02:00.826Z,22.20
2019-02-04T08:04:29.927Z,27.67
2019-02-04T08:07:11.520Z,24.50
2019-02-04T08:09:59.039Z,23.50
2019-02-04T08:12:39.828Z,24.52
2019-02-04T08:15:29.979Z,23.20
2019-02-04T08:18:11.012Z,25.75
2019-02-04T08:20:39.027Z,23.10
2019-02-04T08:23:22.936Z,23.67
2019-02-04T08:25:51.005Z,20.15
2019-02-04T08:28:19.797Z,22.17
2019-02-04T08:31:07.376Z,27.00
2019-02-04T08:33:48.333Z,22.22
2019-02-04T08:36:43.240Z,24.07
2019-02-04T08:39:38.678Z,24.43
2019-02-04T08:42:06.722Z,21.07
2019-02-04T08:44:34.673Z,23.83
2019-02-04T08:47:02.628Z,21.93
2019-02-04T08:49:30.602Z,22.37
2019-02-04T08:51:58.692Z,24.87
2019-02-04T08:54:40.593Z,25.77
2019-02-04T08:57:21.649Z,21.05
2019-02-04T09:00:11.437Z,27.00
2019-02-04T09:02:39.605Z,24.80
2019-02-04T09:05:08.870Z,27.20
2019-02-04T09:07:48.959Z,24.63
2019-02-04T09:10:21.131Z,22.45
2019-02-04T09:12:50.548Z,22.65
2019-02-04T09:15:18.603Z,18.65
2019-02-04T09:18:06.466Z,22.42
2019-02-04T09:20:47.236Z,21.52
2019-02-04T09:23:35.339Z,22.50
2019-02-04T09:26:16.634Z,19.67
2019-02-04T09:28:44.617Z,23.83
2019-02-04T09:31:32.831Z,22.02
2019-02-04T09:34:17.587Z,21.87
2019-02-04T09:37:05.985Z,21.33
2019-02-04T09:39:48.070Z,18.90
2019-02-04T09:42:35.899Z,20.72
2019-02-04T09:45:17.718Z,19.98
2019-02-04T09:47:45.852Z,23.92
2019-02-04T09:50:21.791Z,20.08
2019-02-04T09:53:03.189Z,24.40
2019-02-04T09:55:51.042Z,23.18
2019-02-04T09:58:34.943Z,19.73
2019-02-04T10:01:22.504Z,21.95
2019-02-04T10:04:05.096Z,20.15
2019-02-04T10:06:55.365Z,23.15
2019-02-04T10:09:23.085Z,17.80
2019-02-04T10:11:51.341Z,17.75
2019-02-04T10:14:19.380Z,17.40
2019-02-04T10:16:47.504Z,17.77
2019-02-04T10:19:28.937Z,20.32
2019-02-04T10:22:12.770Z,21.50
2019-02-04T10:25:00.452Z,19.20
2019-02-04T10:27:28.886Z,22.70
2019-02-04T10:30:01.138Z,16.62
2019-02-04T10:32:45.336Z,16.87
2019-02-04T10:35:16.867Z,19.23
2019-02-04T10:37:44.570Z,21.77
2019-02-04T10:40:16.424Z,21.57
2019-02-04T10:42:58.742Z,20.90
2019-02-04T10:45:46.762Z,17.40
2019-02-04T10:48:15.126Z,16.00
2019-02-04T10:50:46.618Z,15.60
2019-02-04T10:53:13.975Z,20.10
2019-02-04T10:58:46.487Z,22.48
2019-02-04T11:01:14.940Z,15.55
2019-02-04T11:03:43.254Z,18.67
2019-02-04T11:06:11.443Z,21.73
2019-02-04T11:09:02.907Z,19.50
2019-02-04T11:11:45.195Z,19.37
2019-02-04T11:14:26.400Z,16.82
2019-02-04T11:17:26.747Z,17.73
2019-02-04T11:19:54.825Z,22.50
2019-02-04T11:22:42.137Z,18.40
2019-02-04T11:25:24.961Z,16.40
2019-02-04T11:27:53.269Z,14.28
2019-02-04T11:33:41.341Z,16.30
2019-02-04T11:36:29.103Z,18.60
2019-02-04T11:39:10.236Z,14.60
2019-02-04T11:41:39.070Z,18.67
2019-02-04T11:44:27.080Z,15.45
2019-02-04T11:47:20.413Z,16.45
2019-02-04T11:49:50.305Z,13.05
2019-02-04T11:52:18.808Z,16.17
2019-02-04T11:55:10.519Z,16.82
2019-02-04T11:57:55.689Z,15.63
2019-02-04T12:00:44.240Z,15.63
2019-02-04T12:03:24.710Z,13.38
2019-02-04T12:06:13.472Z,16.73
2019-02-04T12:08:54.046Z,15.15
2019-02-04T12:11:41.961Z,12.20
2019-02-04T12:14:10.356Z,12.00
2019-02-04T12:16:38.420Z,15.98
2019-02-04T12:19:18.599Z,12.20
2019-02-04T12:22:02.690Z,17.05
2019-02-04T12:24:50.056Z,14.45
2019-02-04T12:27:32.015Z,13.70
2019-02-04T12:30:31.534Z,11.68
2019-02-04T12:33:00.213Z,14.75
2019-02-04T12:35:28.191Z,12.88
2019-02-04T12:38:17.070Z,11.75
2019-02-04T12:40:45.221Z,14.38
2019-02-04T12:43:13.451Z,10.80
2019-02-04T12:45:55.510Z,12.37
2019-02-04T12:48:38.853Z,11.75
2019-02-04T12:51:07.372Z,11.45
2019-02-04T12:56:53.527Z,9.35
2019-02-04T13:05:41.659Z,9.18
2019-02-04T13:08:22.138Z,8.55
2019-02-04T13:11:10.116Z,8.68
2019-02-04T13:13:51.350Z,6.72
2019-02-04T13:16:19.462Z,6.85
2019-02-04T13:18:47.838Z,10.18
2019-02-04T13:21:45.225Z,8.98
2019-02-04T13:24:26.016Z,6.35
2019-02-04T13:27:13.665Z,9.45
2019-02-04T13:29:55.019Z,7.72
2019-02-04T13:32:42.689Z,6.10
2019-02-04T13:35:23.818Z,7.30
2019-02-04T13:38:11.627Z,7.58
2019-02-04T15:25:17.938Z,7.55
2019-02-04T15:31:21.268Z,11.30
2019-02-04T15:34:07.081Z,8.88
2019-02-04T15:37:12.696Z,6.40
2019-02-04T15:40:39.300Z,7.40
2019-02-04T15:44:07.171Z,5.60
2019-02-04T15:46:59.891Z,6.05
2019-02-04T15:50:11.749Z,7.78
2019-02-04T15:52:45.693Z,7.95
2019-02-04T15:55:14.882Z,7.95
2019-02-04T15:57:42.935Z,7.55
2019-02-04T16:00:12.067Z,10.20
2019-02-04T16:02:40.059Z,9.05
2019-02-04T16:05:09.034Z,10.23
2019-02-04T16:07:37.492Z,7.78
2019-02-04T16:10:10.149Z,5.17
2019-02-04T16:12:38.181Z,4.50
2019-02-04T16:15:07.815Z,6.75
2019-02-04T16:17:35.910Z,7.50
2019-02-04T16:20:10.421Z,6.97
2019-02-04T16:22:38.448Z,4.83
2019-02-04T16:25:08.013Z,4.75
2019-02-04T16:27:36.009Z,4.40
2019-02-04T16:30:08.227Z,5.95
2019-02-04T16:32:36.349Z,6.08
2019-02-04T16:35:06.726Z,5.80
2019-02-04T16:37:34.942Z,5.40
2019-02-04T16:40:03.780Z,5.00
2019-02-04T16:42:31.880Z,5.58
2019-02-04T16:44:59.906Z,5.80
2019-02-04T16:47:28.260Z,4.92
2019-02-04T16:49:58.397Z,5.87
2019-02-04T16:52:26.891Z,7.80
2019-02-04T16:54:55.861Z,6.65
2019-02-04T16:57:23.902Z,6.35
2019-02-04T16:59:52.124Z,3.77
2019-02-04T17:02:20.285Z,6.30
2019-02-04T17:04:59.256Z,6.55
2019-02-04T17:07:27.316Z,4.65
2019-02-04T17:09:55.342Z,4.28
2019-02-04T17:12:24.703Z,7.12
2019-02-04T17:14:52.979Z,4.80
2019-02-04T17:17:21.063Z,6.10
2019-02-04T17:19:49.197Z,4.58
2019-02-04T17:22:17.704Z,3.65
2019-02-04T17:24:45.903Z,6.40
2019-02-04T17:27:13.965Z,5.80
2019-02-04T17:29:42.035Z,6.15
2019-02-04T17:32:10.250Z,3.72
2019-02-04T17:34:38.478Z,7.33
2019-02-04T17:37:06.455Z,8.18
2019-02-04T17:39:34.666Z,7.67
2019-02-04T17:42:02.757Z,6.87
2019-02-04T17:44:31.519Z,7.40
2019-02-04T17:47:00.954Z,5.05
2019-02-04T17:49:29.212Z,8.33
2019-02-04T17:51:57.283Z,10.13
2019-02-04T17:54:25.770Z,6.75
2019-02-04T17:56:54.232Z,7.92
2019-02-04T17:59:23.219Z,6.95
2019-02-04T18:01:51.875Z,6.83
2019-02-04T18:04:20.302Z,8.90
2019-02-04T18:06:48.441Z,9.08
2019-02-04T18:09:16.855Z,7.55
2019-02-04T18:11:47.587Z,8.30
2019-02-04T18:14:15.752Z,10.50
2019-02-04T18:16:43.897Z,10.95
2019-02-04T18:19:12.204Z,9.43
2019-02-04T18:21:40.359Z,6.15
2019-02-04T18:24:09.440Z,7.92
2019-02-04T18:26:37.620Z,8.30
2019-02-04T18:29:08.024Z,5.87
2019-02-04T18:31:36.147Z,9.18
2019-02-04T18:34:05.105Z,8.88
2019-02-04T18:36:33.328Z,9.18
2019-02-04T18:39:08.551Z,7.92
2019-02-04T18:41:36.687Z,6.30
2019-02-04T18:44:06.560Z,8.23
2019-02-04T18:46:35.024Z,9.45
2019-02-04T18:49:03.556Z,8.98
2019-02-04T18:51:32.060Z,8.43
2019-02-04T18:54:00.731Z,9.13
2019-02-04T18:56:28.939Z,7.72
2019-02-04T18:58:57.058Z,6.90
2019-02-04T19:01:25.228Z,8.08
2019-02-04T19:03:53.419Z,8.05
2019-02-04T19:06:23.079Z,8.10
2019-02-04T19:08:51.579Z,9.18
2019-02-04T19:11:19.815Z,6.10
2019-02-04T19:13:48.274Z,4.70
2019-02-04T19:16:16.693Z,8.68
2019-02-04T19:18:45.950Z,7.97
2019-02-04T19:21:14.292Z,9.38
2019-02-04T19:23:43.042Z,8.10
2019-02-04T19:26:11.086Z,7.97
2019-02-04T19:28:39.240Z,6.62
2019-02-04T19:31:24.272Z,7.53
2019-02-04T19:33:52.428Z,12.13
2019-02-04T19:36:20.892Z,9.40
2019-02-04T19:38:49.220Z,5.62
2019-02-04T19:41:17.516Z,6.55
2019-02-04T19:43:46.041Z,6.30
2019-02-04T19:46:15.332Z,6.65
2019-02-04T19:48:43.886Z,7.30
2019-02-04T19:51:12.307Z,11.12
2019-02-04T19:53:40.834Z,5.83
2019-02-04T19:56:09.184Z,8.10
2019-02-04T19:58:37.582Z,9.25
2019-02-04T20:01:05.861Z,9.20
2019-02-04T20:03:37.262Z,10.93
2019-02-04T20:06:06.725Z,8.93
2019-02-04T20:08:35.267Z,10.53
2019-02-04T20:11:06.427Z,9.43
2019-02-04T20:13:34.838Z,7.75
2019-02-04T20:16:03.649Z,8.28
2019-02-04T20:18:32.041Z,9.30
2019-02-04T20:21:00.622Z,11.10
2019-02-04T20:23:30.057Z,13.13
2019-02-04T20:25:58.386Z,9.40
2019-02-04T20:28:26.575Z,9.43
2019-02-04T20:30:55.163Z,10.48
2019-02-04T20:33:23.523Z,10.32
2019-02-04T20:35:52.065Z,11.10
2019-02-04T20:38:20.387Z,8.78
2019-02-04T20:40:48.633Z,10.95
2019-02-04T20:43:16.843Z,8.68
2019-02-04T20:45:45.191Z,11.60
2019-02-04T20:48:14.498Z,8.58
2019-02-04T20:50:45.117Z,9.53
2019-02-04T20:53:14.306Z,7.40
2019-02-04T20:55:42.840Z,11.12
2019-02-04T20:58:11.251Z,8.88
2019-02-04T21:00:39.328Z,8.88
2019-02-04T21:03:07.743Z,7.60
2019-02-04T21:05:35.937Z,7.70
2019-02-04T21:08:06.594Z,6.95
2019-02-04T21:10:36.275Z,8.15
2019-02-04T21:13:04.793Z,8.15
2019-02-04T21:15:33.302Z,7.00
2019-02-04T21:18:01.591Z,9.80
2019-02-04T21:20:29.918Z,10.10
2019-02-04T21:22:58.184Z,10.18
2019-02-04T21:25:26.532Z,9.78
2019-02-04T21:27:54.766Z,9.45
2019-02-04T21:30:29.242Z,9.53
2019-02-04T21:32:57.577Z,9.60
2019-02-04T21:35:25.633Z,10.58
2019-02-04T21:37:53.729Z,9.38
2019-02-04T21:40:21.993Z,8.83
2019-02-04T21:42:50.415Z,7.53
2019-02-04T21:45:19.621Z,9.20
2019-02-04T21:47:48.239Z,7.80
2019-02-04T21:50:19.394Z,14.18
2019-02-04T21:52:49.328Z,8.48
2019-02-04T21:55:20.059Z,8.78
2019-02-04T21:57:48.345Z,9.28
2019-02-04T22:00:22.999Z,10.10
2019-02-04T22:02:53.214Z,8.68
2019-02-04T22:05:25.327Z,11.48
2019-02-04T22:07:53.565Z,11.48
2019-02-04T22:10:23.899Z,8.75
2019-02-04T22:12:52.051Z,7.70
2019-02-04T22:15:20.380Z,9.73
2019-02-04T22:17:48.641Z,9.23
2019-02-04T22:20:18.201Z,10.30
2019-02-04T22:22:47.074Z,8.75
2019-02-04T22:25:19.610Z,8.85
2019-02-04T22:27:47.211Z,9.83
2019-02-04T22:30:22.030Z,9.55
2019-02-04T22:32:50.221Z,11.68
2019-02-04T22:35:18.306Z,9.13
2019-02-04T22:37:46.365Z,9.70
2019-02-04T22:40:20.688Z,10.00
2019-02-04T22:42:48.728Z,10.30
2019-02-04T22:45:16.816Z,9.15
2019-02-04T22:47:45.277Z,11.50
2019-02-04T22:50:17.444Z,10.60
2019-02-04T22:52:45.747Z,8.73
2019-02-04T22:55:14.542Z,10.95
2019-02-04T22:57:42.699Z,12.35
2019-02-04T23:00:59.169Z,10.40
2019-02-04T23:03:27.373Z,7.95
2019-02-04T23:05:55.857Z,9.35
2019-02-04T23:08:23.808Z,14.05
2019-02-04T23:13:18.483Z,9.85
2019-02-04T23:15:46.457Z,9.78
2019-02-04T23:18:14.693Z,10.38
2019-02-04T23:20:42.755Z,11.00
2019-02-04T23:23:10.797Z,9.60
2019-02-04T23:25:43.450Z,12.18
2019-02-04T23:28:08.825Z,10.30
2019-02-04T23:30:42.822Z,12.43
2019-02-04T23:33:10.741Z,14.87
2019-02-04T23:35:38.800Z,10.45
2019-02-04T23:38:06.852Z,10.60
2019-02-04T23:40:35.045Z,10.50
2019-02-04T23:43:03.282Z,8.88
2019-02-04T23:45:31.216Z,11.75
2019-02-04T23:47:59.602Z,9.20
2019-02-04T23:50:27.554Z,11.55
2019-02-04T23:52:57.511Z,9.53
2019-02-04T23:55:25.379Z,10.68
2019-02-04T23:57:53.335Z,10.32
